createdAt,value
2023-09-23T00:00:15.057Z,19.56
2023-09-23T00:02:45.644Z,19.46
2023-09-23T00:05:13.292Z,19.33
2023-09-23T00:07:41.344Z,19.37
2023-09-23T00:10:09.651Z,19.37
2023-09-23T00:12:37.344Z,19.35
2023-09-23T00:15:06.497Z,19.26
2023-09-23T00:17:33.807Z,19.02
2023-09-23T00:20:01.919Z,19.05
2023-09-23T00:22:28.590Z,18.92
2023-09-23T00:24:55.540Z,18.88
2023-09-23T00:27:23.100Z,18.73
2023-09-23T00:29:50.452Z,18.60
2023-09-23T00:32:18.834Z,18.46
2023-09-23T00:34:45.559Z,18.51
2023-09-23T00:37:12.386Z,18.56
2023-09-23T00:39:43.631Z,18.68
2023-09-23T00:42:13.541Z,18.80
2023-09-23T00:44:43.044Z,18.81
2023-09-23T00:47:11.233Z,18.93
2023-09-23T00:49:43.240Z,19.01
2023-09-23T00:52:10.100Z,19.03
2023-09-23T00:54:37.374Z,19.08
2023-09-23T00:57:07.570Z,19.16
2023-09-23T00:59:37.832Z,19.30
2023-09-23T01:02:06.291Z,19.25
2023-09-23T01:04:34.924Z,19.24
2023-09-23T01:07:10.667Z,19.24
2023-09-23T01:09:38.562Z,19.26
2023-09-23T01:12:05.878Z,19.29
2023-09-23T01:14:32.950Z,19.22
2023-09-23T01:16:59.878Z,19.16
2023-09-23T01:19:28.053Z,19.19
2023-09-23T01:21:57.538Z,19.23
2023-09-23T01:24:25.329Z,19.29
2023-09-23T01:26:52.253Z,18.91
2023-09-23T01:29:23.489Z,19.00
2023-09-23T01:32:21.283Z,19.10
2023-09-23T01:34:47.931Z,18.92
2023-09-23T01:37:14.559Z,18.94
2023-09-23T01:39:42.468Z,19.04
2023-09-23T01:42:09.262Z,18.97
2023-09-23T01:44:35.994Z,19.02
2023-09-23T01:47:02.769Z,19.03
2023-09-23T01:49:29.438Z,18.90
2023-09-23T01:51:56.215Z,18.75
2023-09-23T01:54:23.033Z,18.76
2023-09-23T01:56:49.920Z,18.82
2023-09-23T01:59:16.585Z,18.86
2023-09-23T02:01:45.258Z,18.84
2023-09-23T02:04:12.340Z,18.61
2023-09-23T02:06:39.947Z,18.49
2023-09-23T02:09:06.586Z,18.32
2023-09-23T02:11:33.223Z,18.28
2023-09-23T02:13:59.932Z,18.16
2023-09-23T02:16:26.643Z,18.18
2023-09-23T02:18:53.280Z,18.12
2023-09-23T02:21:20.476Z,18.16
2023-09-23T02:23:47.753Z,18.12
2023-09-23T02:26:14.381Z,18.10
2023-09-23T02:28:41.667Z,18.10
2023-09-23T02:31:09.011Z,18.13
2023-09-23T02:33:35.668Z,18.06
2023-09-23T02:36:02.271Z,18.09
2023-09-23T02:38:29.172Z,18.08
2023-09-23T02:41:01.587Z,18.06
2023-09-23T02:43:28.196Z,18.03
2023-09-23T02:45:57.630Z,17.98
2023-09-23T02:48:25.563Z,17.98
2023-09-23T02:50:52.215Z,18.01
2023-09-23T02:53:18.993Z,18.03
2023-09-23T02:55:53.263Z,17.89
2023-09-23T02:58:20.001Z,17.96
2023-09-23T03:00:58.661Z,17.93
2023-09-23T03:03:25.908Z,17.63
2023-09-23T03:05:56.713Z,17.72
2023-09-23T03:08:26.405Z,17.66
2023-09-23T03:10:53.409Z,17.66
2023-09-23T03:13:20.305Z,17.67
2023-09-23T03:15:54.617Z,17.59
2023-09-23T03:18:35.315Z,17.72
2023-09-23T03:21:10.022Z,17.62
2023-09-23T03:23:43.294Z,17.47
2023-09-23T03:26:11.146Z,17.48
2023-09-23T03:28:40.073Z,17.38
2023-09-23T03:31:10.427Z,17.28
2023-09-23T03:33:38.391Z,17.35
2023-09-23T03:36:11.007Z,17.45
2023-09-23T03:38:38.895Z,17.40
2023-09-23T03:41:05.602Z,17.51
2023-09-23T03:43:32.297Z,17.46
2023-09-23T03:45:59.098Z,17.52
2023-09-23T03:48:26.996Z,17.63
2023-09-23T03:50:54.296Z,17.64
2023-09-23T03:53:25.074Z,17.59
2023-09-23T03:55:56.493Z,17.58
2023-09-23T03:58:23.746Z,17.61
2023-09-23T04:00:50.883Z,17.61
2023-09-23T04:03:19.545Z,17.53
2023-09-23T04:05:55.266Z,17.49
2023-09-23T04:08:22.008Z,17.40
2023-09-23T04:10:48.765Z,17.44
2023-09-23T04:13:15.752Z,17.24
2023-09-23T04:15:43.211Z,17.17
2023-09-23T04:18:10.634Z,17.17
2023-09-23T04:20:37.534Z,17.17
2023-09-23T04:23:04.625Z,17.28
2023-09-23T04:25:31.744Z,17.28
2023-09-23T04:27:58.420Z,17.28
2023-09-23T04:30:27.290Z,17.39
2023-09-23T04:32:56.678Z,17.52
2023-09-23T04:35:23.561Z,17.52
2023-09-23T04:37:50.675Z,17.69
2023-09-23T04:40:19.453Z,17.70
2023-09-23T04:42:46.155Z,17.80
2023-09-23T04:45:13.260Z,17.82
2023-09-23T04:47:41.574Z,17.91
2023-09-23T04:50:13.443Z,17.86
2023-09-23T04:52:42.157Z,17.94
2023-09-23T04:55:09.368Z,17.98
2023-09-23T04:57:37.321Z,17.95
2023-09-23T05:00:06.076Z,17.94
2023-09-23T05:02:33.006Z,18.09
2023-09-23T05:04:59.958Z,18.30
2023-09-23T05:07:27.012Z,18.54
2023-09-23T05:09:56.922Z,18.77
2023-09-23T05:12:24.965Z,19.21
2023-09-23T05:14:54.083Z,19.73
2023-09-23T05:17:23.114Z,20.08
2023-09-23T05:19:49.960Z,20.21
2023-09-23T05:22:17.854Z,20.74
2023-09-23T05:24:48.816Z,21.19
2023-09-23T05:27:16.046Z,21.61
2023-09-23T05:29:44.644Z,21.54
2023-09-23T05:32:12.094Z,21.45
2023-09-23T05:34:43.212Z,21.78
2023-09-23T05:37:12.739Z,22.01
2023-09-23T05:39:46.046Z,22.21
2023-09-23T05:42:17.153Z,21.96
2023-09-23T05:44:45.413Z,21.79
2023-09-23T05:47:12.306Z,21.73
2023-09-23T05:49:40.093Z,21.82
2023-09-23T05:52:07.437Z,21.89
2023-09-23T05:54:34.749Z,21.95
2023-09-23T05:57:01.637Z,21.89
2023-09-23T05:59:28.258Z,21.88
2023-09-23T06:01:55.349Z,22.09
2023-09-23T06:04:22.123Z,22.24
2023-09-23T06:06:48.752Z,21.94
2023-09-23T06:09:16.383Z,21.72
2023-09-23T06:11:44.643Z,21.87
2023-09-23T06:14:13.013Z,22.03
2023-09-23T06:16:39.948Z,22.18
2023-09-23T06:19:08.125Z,22.44
2023-09-23T06:21:36.297Z,22.75
2023-09-23T06:24:03.888Z,22.80
2023-09-23T06:26:31.347Z,22.92
2023-09-23T06:28:58.111Z,23.05
2023-09-23T06:31:25.114Z,23.30
2023-09-23T06:33:51.765Z,23.50
2023-09-23T06:36:18.378Z,23.55
2023-09-23T06:38:45.103Z,23.53
2023-09-23T06:41:11.763Z,23.56
2023-09-23T06:43:38.482Z,23.68
2023-09-23T06:46:05.141Z,23.84
2023-09-23T06:48:31.920Z,23.89
2023-09-23T06:51:03.883Z,23.96
2023-09-23T06:53:31.793Z,23.90
2023-09-23T06:55:58.542Z,23.91
2023-09-23T06:58:25.194Z,24.06
2023-09-23T07:00:51.942Z,24.17
2023-09-23T07:03:18.842Z,24.44
2023-09-23T07:05:45.872Z,24.58
2023-09-23T07:08:12.918Z,24.78
2023-09-23T07:10:40.818Z,24.73
2023-09-23T07:13:09.324Z,24.55
2023-09-23T07:15:39.741Z,24.73
2023-09-23T07:18:07.158Z,24.76
2023-09-23T07:20:34.801Z,24.74
2023-09-23T07:23:02.277Z,24.51
2023-09-23T07:25:29.201Z,24.96
2023-09-23T07:27:56.006Z,25.16
2023-09-23T07:30:22.751Z,25.25
2023-09-23T07:32:49.481Z,25.71
2023-09-23T07:35:16.692Z,25.75
2023-09-23T07:37:43.475Z,25.70
2023-09-23T07:40:10.612Z,25.83
2023-09-23T07:42:37.339Z,25.64
2023-09-23T07:45:04.391Z,25.53
2023-09-23T07:47:31.162Z,25.66
2023-09-23T07:49:59.286Z,25.56
2023-09-23T07:52:25.944Z,25.52
2023-09-23T07:54:52.604Z,25.71
2023-09-23T07:57:19.286Z,25.87
2023-09-23T07:59:46.657Z,26.03
2023-09-23T08:02:13.322Z,26.06
2023-09-23T08:04:40.107Z,26.22
2023-09-23T08:07:07.702Z,26.32
2023-09-23T08:09:34.427Z,26.28
2023-09-23T08:12:01.098Z,26.46
2023-09-23T08:14:28.014Z,26.61
2023-09-23T08:16:55.808Z,26.76
2023-09-23T08:19:22.622Z,26.87
2023-09-23T08:21:49.222Z,26.75
2023-09-23T08:24:16.123Z,26.91
2023-09-23T08:26:43.053Z,27.03
2023-09-23T08:29:10.933Z,26.88
2023-09-23T08:31:38.179Z,26.79
2023-09-23T08:34:10.324Z,26.76
2023-09-23T08:36:37.909Z,26.92
2023-09-23T08:39:10.812Z,27.10
2023-09-23T08:41:37.665Z,27.45
2023-09-23T08:44:05.968Z,27.48
2023-09-23T08:46:33.176Z,27.55
2023-09-23T08:49:00.894Z,27.60
2023-09-23T08:51:28.858Z,27.64
2023-09-23T08:53:56.609Z,27.97
2023-09-23T08:56:23.548Z,27.86
2023-09-23T08:58:50.678Z,27.87
2023-09-23T09:01:18.433Z,28.15
2023-09-23T09:03:45.972Z,28.25
2023-09-23T09:06:30.738Z,28.24
2023-09-23T09:08:57.684Z,28.40
2023-09-23T09:11:25.390Z,28.35
2023-09-23T09:13:52.410Z,28.50
2023-09-23T09:16:20.322Z,28.56
2023-09-23T09:18:51.636Z,28.64
2023-09-23T09:21:18.320Z,28.63
2023-09-23T09:23:44.979Z,28.70
2023-09-23T09:26:11.794Z,28.84
2023-09-23T09:28:38.958Z,28.99
2023-09-23T09:31:10.974Z,28.83
2023-09-23T09:33:39.234Z,28.95
2023-09-23T09:36:08.966Z,29.10
2023-09-23T09:38:38.308Z,29.15
2023-09-23T09:41:07.146Z,29.40
2023-09-23T09:43:34.886Z,29.69
2023-09-23T09:46:10.194Z,29.99
2023-09-23T09:48:42.999Z,30.24
2023-09-23T09:51:14.781Z,30.29
2023-09-23T09:53:42.623Z,30.22
2023-09-23T09:56:10.314Z,30.07
2023-09-23T09:58:42.114Z,30.14
2023-09-23T10:01:14.492Z,29.96
2023-09-23T10:03:44.432Z,29.95
2023-09-23T10:06:20.152Z,29.77
2023-09-23T10:08:49.872Z,30.01
2023-09-23T10:11:17.880Z,30.13
2023-09-23T10:13:45.085Z,30.17
2023-09-23T10:16:13.892Z,30.30
2023-09-23T10:18:42.466Z,30.60
2023-09-23T10:21:21.756Z,30.80
2023-09-23T10:23:50.742Z,30.76
2023-09-23T10:26:20.385Z,30.43
2023-09-23T10:29:00.684Z,30.76
2023-09-23T10:31:28.972Z,30.58
2023-09-23T10:33:56.642Z,30.49
2023-09-23T10:36:24.116Z,30.62
2023-09-23T10:38:51.423Z,30.85
2023-09-23T10:41:19.396Z,31.03
2023-09-23T10:43:55.146Z,31.24
2023-09-23T10:46:21.990Z,31.23
2023-09-23T10:48:49.023Z,31.50
2023-09-23T10:51:15.932Z,31.62
2023-09-23T10:53:43.337Z,31.89
2023-09-23T10:56:12.090Z,31.69
2023-09-23T10:58:39.956Z,31.71
2023-09-23T11:01:08.055Z,31.85
2023-09-23T11:03:42.329Z,32.03
2023-09-23T11:06:09.744Z,32.08
2023-09-23T11:08:37.499Z,32.10
2023-09-23T11:11:04.398Z,32.31
2023-09-23T11:13:34.899Z,32.55
2023-09-23T11:16:10.213Z,32.68
2023-09-23T11:18:38.707Z,32.76
2023-09-23T11:21:06.181Z,32.74
2023-09-23T11:23:34.169Z,32.87
2023-09-23T11:26:01.012Z,33.03
2023-09-23T11:28:28.841Z,33.25
2023-09-23T11:30:57.441Z,33.40
2023-09-23T11:33:24.479Z,33.56
2023-09-23T11:35:51.213Z,33.58
2023-09-23T11:38:19.979Z,33.50
2023-09-23T11:40:47.911Z,33.73
2023-09-23T11:43:14.612Z,33.79
2023-09-23T11:45:42.511Z,33.89
2023-09-23T11:48:09.606Z,34.12
2023-09-23T11:50:37.454Z,34.26
2023-09-23T11:53:04.777Z,33.78
2023-09-23T11:55:33.765Z,33.93
2023-09-23T11:58:01.347Z,33.53
2023-09-23T12:00:28.092Z,33.78
2023-09-23T12:02:55.033Z,33.75
2023-09-23T12:05:22.620Z,33.82
2023-09-23T12:07:49.437Z,33.84
2023-09-23T12:10:16.313Z,34.02
2023-09-23T12:12:46.694Z,33.89
2023-09-23T12:15:13.512Z,33.88
2023-09-23T12:17:40.326Z,33.80
2023-09-23T12:20:13.091Z,33.94
2023-09-23T12:22:40.327Z,34.04
2023-09-23T12:25:08.021Z,33.99
2023-09-23T12:27:35.195Z,34.08
2023-09-23T12:30:02.185Z,34.20
2023-09-23T12:32:29.966Z,34.32
2023-09-23T12:35:00.432Z,34.51
2023-09-23T12:37:28.599Z,34.29
2023-09-23T12:39:57.036Z,34.22
2023-09-23T12:42:24.064Z,34.15
2023-09-23T12:44:50.697Z,33.89
2023-09-23T12:47:17.421Z,34.09
2023-09-23T12:49:44.976Z,34.47
2023-09-23T12:52:12.660Z,34.49
2023-09-23T12:54:39.487Z,34.78
2023-09-23T12:57:06.176Z,34.93
2023-09-23T12:59:33.165Z,34.96
2023-09-23T13:01:59.875Z,34.72
2023-09-23T13:04:26.625Z,34.53
2023-09-23T13:06:53.348Z,34.23
2023-09-23T13:09:20.169Z,34.64
2023-09-23T13:11:46.806Z,34.54
2023-09-23T13:14:13.673Z,34.77
2023-09-23T13:16:40.363Z,34.85
2023-09-23T13:19:07.027Z,35.00
2023-09-23T13:21:33.829Z,34.87
2023-09-23T13:24:01.440Z,34.59
2023-09-23T13:26:28.193Z,34.67
2023-09-23T13:28:55.003Z,34.77
2023-09-23T13:31:21.835Z,34.71
2023-09-23T13:33:49.913Z,34.82
2023-09-23T13:36:16.718Z,34.36
2023-09-23T13:38:43.619Z,34.41
2023-09-23T13:41:10.510Z,34.59
2023-09-23T13:43:37.151Z,34.79
2023-09-23T13:46:03.977Z,34.83
2023-09-23T13:48:30.927Z,34.83
2023-09-23T13:50:57.688Z,34.98
2023-09-23T13:53:24.312Z,34.85
2023-09-23T13:55:51.022Z,34.76
2023-09-23T13:58:17.891Z,34.38
2023-09-23T14:00:44.631Z,34.07
2023-09-23T14:03:11.288Z,33.84
2023-09-23T14:05:38.044Z,33.97
2023-09-23T14:08:05.108Z,33.95
2023-09-23T14:10:32.093Z,34.05
2023-09-23T14:12:58.741Z,34.13
2023-09-23T14:15:26.579Z,34.02
2023-09-23T14:17:53.297Z,33.88
2023-09-23T14:20:20.111Z,34.08
2023-09-23T14:22:49.370Z,33.59
2023-09-23T14:25:18.437Z,33.41
2023-09-23T14:27:45.152Z,33.58
2023-09-23T14:30:12.511Z,33.37
2023-09-23T14:32:39.669Z,33.36
2023-09-23T14:35:06.923Z,33.20
2023-09-23T14:37:34.510Z,32.99
2023-09-23T14:40:01.726Z,32.79
2023-09-23T14:42:28.728Z,32.53
2023-09-23T14:44:55.392Z,32.35
2023-09-23T14:47:22.277Z,32.29
2023-09-23T14:49:49.012Z,32.15
2023-09-23T14:52:15.722Z,32.10
2023-09-23T14:54:42.942Z,32.03
2023-09-23T14:57:09.722Z,31.95
2023-09-23T14:59:37.120Z,32.00
2023-09-23T15:02:05.074Z,32.12
2023-09-23T15:04:32.114Z,32.31
2023-09-23T15:07:00.868Z,32.39
2023-09-23T15:09:28.157Z,32.40
2023-09-23T15:11:55.298Z,32.43
2023-09-23T15:14:22.160Z,32.36
2023-09-23T15:16:51.491Z,32.41
2023-09-23T15:19:21.309Z,32.34
2023-09-23T15:21:48.068Z,32.19
2023-09-23T15:24:18.204Z,31.97
2023-09-23T15:26:45.341Z,31.90
2023-09-23T15:29:12.380Z,31.73
2023-09-23T15:31:39.100Z,31.67
2023-09-23T15:34:06.504Z,31.73
2023-09-23T15:36:33.464Z,31.70
2023-09-23T15:39:00.427Z,31.68
2023-09-23T15:41:27.258Z,31.61
2023-09-23T15:43:53.991Z,31.49
2023-09-23T15:46:20.681Z,31.31
2023-09-23T15:48:47.534Z,31.20
2023-09-23T15:51:17.848Z,31.06
2023-09-23T15:53:45.698Z,30.98
2023-09-23T15:56:13.250Z,30.86
2023-09-23T15:58:40.666Z,30.85
2023-09-23T16:01:07.851Z,30.85
2023-09-23T16:03:35.290Z,30.75
2023-09-23T16:06:02.521Z,30.45
2023-09-23T16:08:30.041Z,30.31
2023-09-23T16:10:56.790Z,30.16
2023-09-23T16:13:23.584Z,29.97
2023-09-23T16:15:50.286Z,29.84
2023-09-23T16:18:19.976Z,29.74
2023-09-23T16:20:48.735Z,29.47
2023-09-23T16:23:15.505Z,29.32
2023-09-23T16:25:42.267Z,29.26
2023-09-23T16:28:08.925Z,29.13
2023-09-23T16:30:35.655Z,29.15
2023-09-23T16:33:02.689Z,29.09
2023-09-23T16:35:29.508Z,28.92
2023-09-23T16:37:56.275Z,28.81
2023-09-23T16:40:22.963Z,28.75
2023-09-23T16:42:49.728Z,28.63
2023-09-23T16:45:16.554Z,28.62
2023-09-23T16:47:45.136Z,28.60
2023-09-23T16:50:12.221Z,28.45
2023-09-23T16:52:39.062Z,28.43
2023-09-23T16:55:06.027Z,28.28
2023-09-23T16:57:32.885Z,28.28
2023-09-23T16:59:59.574Z,28.23
2023-09-23T17:02:26.722Z,28.18
2023-09-23T17:04:53.885Z,28.15
2023-09-23T17:07:20.581Z,28.10
2023-09-23T17:09:47.465Z,28.10
2023-09-23T17:12:14.396Z,28.00
2023-09-23T17:14:41.276Z,27.82
2023-09-23T17:17:08.673Z,27.72
2023-09-23T17:19:35.878Z,27.66
2023-09-23T17:22:02.603Z,27.76
2023-09-23T17:24:30.562Z,27.84
2023-09-23T17:26:57.593Z,27.74
2023-09-23T17:29:24.500Z,27.49
2023-09-23T17:31:51.399Z,27.36
2023-09-23T17:34:18.334Z,27.21
2023-09-23T17:36:45.023Z,27.08
2023-09-23T17:39:12.142Z,27.02
2023-09-23T17:41:39.603Z,26.75
2023-09-23T17:44:07.230Z,26.87
2023-09-23T17:46:34.517Z,26.86
2023-09-23T17:49:01.273Z,26.83
2023-09-23T17:51:28.238Z,26.73
2023-09-23T17:53:54.945Z,26.75
2023-09-23T17:56:23.328Z,26.86
2023-09-23T17:58:50.336Z,26.84
2023-09-23T18:01:17.393Z,26.81
2023-09-23T18:03:44.495Z,26.82
2023-09-23T18:06:11.427Z,26.83
2023-09-23T18:08:38.240Z,26.77
2023-09-23T18:11:05.023Z,26.75
2023-09-23T18:13:32.382Z,26.70
2023-09-23T18:15:59.066Z,26.80
2023-09-23T18:18:27.881Z,26.76
2023-09-23T18:20:56.005Z,26.74
2023-09-23T18:23:22.813Z,26.69
2023-09-23T18:25:50.000Z,26.69
2023-09-23T18:28:16.720Z,26.68
2023-09-23T18:30:43.399Z,26.66
2023-09-23T18:33:10.236Z,26.74
2023-09-23T18:35:37.557Z,26.67
2023-09-23T18:38:04.430Z,26.74
2023-09-23T18:40:31.425Z,26.58
2023-09-23T18:42:58.056Z,26.37
2023-09-23T18:45:24.959Z,26.47
2023-09-23T18:48:00.632Z,26.40
2023-09-23T18:50:34.743Z,26.43
2023-09-23T18:53:01.526Z,26.32
2023-09-23T18:55:28.513Z,26.19
2023-09-23T18:57:55.280Z,26.30
2023-09-23T19:00:22.269Z,26.23
2023-09-23T19:02:49.201Z,26.11
2023-09-23T19:05:16.561Z,26.11
2023-09-23T19:07:43.276Z,26.09
2023-09-23T19:10:12.052Z,26.11
2023-09-23T19:12:39.184Z,26.10
2023-09-23T19:15:07.292Z,26.22
2023-09-23T19:17:34.205Z,26.08
2023-09-23T19:20:01.122Z,26.20
2023-09-23T19:22:27.928Z,26.12
2023-09-23T19:24:55.142Z,26.04
2023-09-23T19:27:21.983Z,25.93
2023-09-23T19:29:51.073Z,25.74
2023-09-23T19:32:18.024Z,25.74
2023-09-23T19:34:44.902Z,25.67
2023-09-23T19:37:11.588Z,25.54
2023-09-23T19:39:38.495Z,25.49
2023-09-23T19:42:05.826Z,25.38
2023-09-23T19:44:33.171Z,25.33
2023-09-23T19:47:02.065Z,25.30
2023-09-23T19:49:29.248Z,25.27
2023-09-23T19:51:56.493Z,25.20
2023-09-23T19:54:24.124Z,24.96
2023-09-23T19:56:51.059Z,24.94
2023-09-23T19:59:21.031Z,24.93
2023-09-23T20:01:48.309Z,24.97
2023-09-23T20:04:15.334Z,24.97
2023-09-23T20:06:42.671Z,24.94
2023-09-23T20:09:10.579Z,24.85
2023-09-23T20:11:37.470Z,24.91
2023-09-23T20:14:04.218Z,24.91
2023-09-23T20:16:32.990Z,24.89
2023-09-23T20:19:00.368Z,24.93
2023-09-23T20:21:27.499Z,24.78
2023-09-23T20:23:54.323Z,24.87
2023-09-23T20:26:22.317Z,24.75
2023-09-23T20:28:49.329Z,24.73
2023-09-23T20:31:16.703Z,24.58
2023-09-23T20:33:44.151Z,24.50
2023-09-23T20:36:10.936Z,24.46
2023-09-23T20:38:40.290Z,24.47
2023-09-23T20:41:07.813Z,24.48
2023-09-23T20:43:38.915Z,24.50
2023-09-23T20:46:12.494Z,24.40
2023-09-23T20:48:39.425Z,24.40
2023-09-23T20:51:06.190Z,24.37
2023-09-23T20:53:35.709Z,24.18
2023-09-23T20:56:06.724Z,24.07
2023-09-23T20:58:34.350Z,24.03
2023-09-23T21:01:01.959Z,24.01
2023-09-23T21:03:28.736Z,24.07
2023-09-23T21:05:55.910Z,24.06
2023-09-23T21:08:22.852Z,24.05
2023-09-23T21:10:49.645Z,24.01
2023-09-23T21:13:16.293Z,24.00
2023-09-23T21:15:43.180Z,24.07
2023-09-23T21:18:10.937Z,24.05
2023-09-23T21:20:38.498Z,23.92
2023-09-23T21:23:05.414Z,24.00
2023-09-23T21:25:32.342Z,23.92
2023-09-23T21:27:59.270Z,23.89
2023-09-23T21:30:26.174Z,23.85
2023-09-23T21:32:52.910Z,23.83
2023-09-23T21:35:19.660Z,23.73
2023-09-23T21:37:46.337Z,23.56
2023-09-23T21:40:12.996Z,23.57
2023-09-23T21:42:39.642Z,23.48
2023-09-23T21:45:06.898Z,23.18
2023-09-23T21:47:33.628Z,23.03
2023-09-23T21:50:00.346Z,23.03
2023-09-23T21:52:27.285Z,23.20
2023-09-23T21:54:53.946Z,23.27
2023-09-23T21:57:20.724Z,23.30
2023-09-23T21:59:47.494Z,23.29
2023-09-23T22:02:14.416Z,23.33
2023-09-23T22:04:41.246Z,23.43
2023-09-23T22:07:07.961Z,23.35
2023-09-23T22:09:34.609Z,23.33
2023-09-23T22:12:01.297Z,23.32
2023-09-23T22:14:28.068Z,23.31
2023-09-23T22:16:57.548Z,23.27
2023-09-23T22:19:24.795Z,23.16
2023-09-23T22:21:52.645Z,23.07
2023-09-23T22:24:22.654Z,22.95
2023-09-23T22:26:54.503Z,22.88
2023-09-23T22:29:21.589Z,22.86
2023-09-23T22:31:48.633Z,22.74
2023-09-23T22:34:15.373Z,22.60
2023-09-23T22:36:42.754Z,22.55
2023-09-23T22:39:13.363Z,22.38
2023-09-23T22:41:40.614Z,22.35
2023-09-23T22:44:07.923Z,22.32
2023-09-23T22:46:34.809Z,22.16
2023-09-23T22:49:01.430Z,22.10
2023-09-23T22:51:29.335Z,21.88
2023-09-23T22:53:57.040Z,21.70
2023-09-23T22:56:24.363Z,21.67
2023-09-23T22:58:52.175Z,21.55
2023-09-23T23:01:19.700Z,21.53
2023-09-23T23:03:46.842Z,21.19
2023-09-23T23:06:13.856Z,20.72
2023-09-23T23:08:40.609Z,20.75
2023-09-23T23:11:08.762Z,20.73
2023-09-23T23:13:38.598Z,20.60
2023-09-23T23:16:10.037Z,20.61
2023-09-23T23:18:36.899Z,20.55
2023-09-23T23:21:04.786Z,20.62
2023-09-23T23:23:32.385Z,20.57
2023-09-23T23:26:00.510Z,20.52
2023-09-23T23:28:28.465Z,20.49
2023-09-23T23:30:55.341Z,20.36
2023-09-23T23:33:22.489Z,20.41
2023-09-23T23:35:49.494Z,20.35
2023-09-23T23:38:16.297Z,20.40
2023-09-23T23:40:43.173Z,20.32
2023-09-23T23:43:10.628Z,20.08
2023-09-23T23:45:37.406Z,20.07
2023-09-23T23:48:04.575Z,20.09
2023-09-23T23:50:31.764Z,20.11
2023-09-23T23:52:58.449Z,20.11
2023-09-23T23:55:26.745Z,20.05
2023-09-23T23:57:53.646Z,20.14
